sensor_id;sensor_type;location;lat;lon;timestamp;temperature;humidity
49901;DHT22;35789;48.414;12.768;2022-12-18T00:00:00;-3.4;99.9
49901;DHT22;35789;48.414;12.768;2022-12-18T00:05:00;-3.4;99.9
49901;DHT22;35789;48.414;12.768;2022-12-18T00:10:00;-3.4;99.9
49901;DHT22;35789;48.414;12.768;2022-12-18T00:15:00;-3.7;99.9
49901;DHT22;35789;48.414;12.768;2022-12-18T00:20:00;-3.7;99.9
49901;DHT22;35789;48.414;12.768;2022-12-18T00:25:00;-3.6;99.9
49901;DHT22;35789;48.414;12.768;2022-12-18T00:30:00;-3.5;99.9
49901;DHT22;35789;48.414;12.768;2022-12-18T00:35:00;-3.6;99.9
49901;DHT22;35789;48.414;12.768;2022-12-18T00:40:00;-3.6;99.9
49901;DHT22;35789;48.414;12.768;2022-12-18T00:45:00;-3.5;99.9
49901;DHT22;35789;48.414;12.768;2022-12-18T00:50:00;-3.5;99.9
49901;DHT22;35789;48.414;12.768;2022-12-18T00:55:00;-3.5;99.9
49901;DHT22;35789;48.414;12.768;2022-12-18T01:00:00;-3.6;99.9
49901;DHT22;35789;48.414;12.768;2022-12-18T01:05:00;-3.6;99.9
49901;DHT22;35789;48.414;12.768;2022-12-18T01:10:00;-3.6;99.9
49901;DHT22;35789;48.414;12.768;2022-12-18T01:15:00;-3.5;99.9
49901;DHT22;35789;48.414;12.768;2022-12-18T01:20:00;-3.5;99.9
49901;DHT22;35789;48.414;12.768;2022-12-18T01:25:00;-3.4;99.9
49901;DHT22;35789;48.414;12.768;2022-12-18T01:30:00;-3.5;99.9
49901;DHT22;35789;48.414;12.768;2022-12-18T01:35:00;-3.6;99.9
49901;DHT22;35789;48.414;12.768;2022-12-18T01:40:00;-3.5;99.9
49901;DHT22;35789;48.414;12.768;2022-12-18T01:45:01;-3.6;99.9
49901;DHT22;35789;48.414;12.768;2022-12-18T01:50:02;-3.6;99.9
49901;DHT22;35789;48.414;12.768;2022-12-18T01:55:00;-3.7;99.9
49901;DHT22;35789;48.414;12.768;2022-12-18T02:00:00;-3.6;99.9
49901;DHT22;35789;48.414;12.768;2022-12-18T02:05:00;-3.7;99.9
49901;DHT22;35789;48.414;12.768;2022-12-18T02:10:02;-3.7;99.9
49901;DHT22;35789;48.414;12.768;2022-12-18T02:15:02;-3.6;99.9
49901;DHT22;35789;48.414;12.768;2022-12-18T02:20:02;-3.6;99.9
49901;DHT22;35789;48.414;12.768;2022-12-18T02:25:05;-3.6;99.9
49901;DHT22;35789;48.414;12.768;2022-12-18T02:30:00;-3.5;99.9
49901;DHT22;35789;48.414;12.768;2022-12-18T02:35:00;-3.6;99.9
49901;DHT22;35789;48.414;12.768;2022-12-18T02:40:00;-3.5;99.9
49901;DHT22;35789;48.414;12.768;2022-12-18T02:45:00;-3.6;99.9
49901;DHT22;35789;48.414;12.768;2022-12-18T02:50:02;-3.5;99.9
49901;DHT22;35789;48.414;12.768;2022-12-18T02:55:03;-3.5;99.9
49901;DHT22;35789;48.414;12.768;2022-12-18T03:00:02;-3.6;99.9
49901;DHT22;35789;48.414;12.768;2022-12-18T03:05:01;-3.7;99.9
49901;DHT22;35789;48.414;12.768;2022-12-18T03:10:00;-3.5;99.9
49901;DHT22;35789;48.414;12.768;2022-12-18T03:15:02;-3.4;99.9
49901;DHT22;35789;48.414;12.768;2022-12-18T03:20:03;-3.2;99.9
49901;DHT22;35789;48.414;12.768;2022-12-18T03:25:00;-3.2;99.9
49901;DHT22;35789;48.414;12.768;2022-12-18T03:30:01;-3.2;99.9
49901;DHT22;35789;48.414;12.768;2022-12-18T03:35:00;-3.2;99.9
49901;DHT22;35789;48.414;12.768;2022-12-18T03:40:00;-3.4;99.9
49901;DHT22;35789;48.414;12.768;2022-12-18T03:45:01;-3.3;99.9
49901;DHT22;35789;48.414;12.768;2022-12-18T03:50:03;-3.4;99.9
49901;DHT22;35789;48.414;12.768;2022-12-18T03:55:00;-3.5;99.9
49901;DHT22;35789;48.414;12.768;2022-12-18T04:00:00;-3.5;99.9
49901;DHT22;35789;48.414;12.768;2022-12-18T04:05:00;-3.6;99.9
49901;DHT22;35789;48.414;12.768;2022-12-18T04:10:00;-3.5;99.9
49901;DHT22;35789;48.414;12.768;2022-12-18T04:15:00;-3.5;99.9
49901;DHT22;35789;48.414;12.768;2022-12-18T04:20:00;-3.5;99.9
49901;DHT22;35789;48.414;12.768;2022-12-18T04:25:00;-3.5;99.9
49901;DHT22;35789;48.414;12.768;2022-12-18T04:30:00;-3.6;99.9
49901;DHT22;35789;48.414;12.768;2022-12-18T04:35:00;-3.7;99.9
49901;DHT22;35789;48.414;12.768;2022-12-18T04:40:00;unavailable;unavailable
49901;DHT22;35789;48.414;12.768;2022-12-18T04:45:00;-3.5;99.9
49901;DHT22;35789;48.414;12.768;2022-12-18T04:50:00;-3.5;99.9
49901;DHT22;35789;48.414;12.768;2022-12-18T04:55:00;-3.5;99.9
49901;DHT22;35789;48.414;12.768;2022-12-18T05:00:00;-3.5;99.9
49901;DHT22;35789;48.414;12.768;2022-12-18T05:05:00;-3.5;99.9
49901;DHT22;35789;48.414;12.768;2022-12-18T05:10:00;-3.6;99.9
49901;DHT22;35789;48.414;12.768;2022-12-18T05:15:03;-3.6;99.9
49901;DHT22;35789;48.414;12.768;2022-12-18T05:20:00;-3.5;99.9
49901;DHT22;35789;48.414;12.768;2022-12-18T05:25:00;-3.4;99.9
49901;DHT22;35789;48.414;12.768;2022-12-18T05:30:00;-3.6;99.9
49901;DHT22;35789;48.414;12.768;2022-12-18T05:35:00;-3.5;99.9
49901;DHT22;35789;48.414;12.768;2022-12-18T05:40:00;-3.6;99.9
49901;DHT22;35789;48.414;12.768;2022-12-18T05:45:00;-3.6;99.9
49901;DHT22;35789;48.414;12.768;2022-12-18T05:50:00;-3.6;99.9
49901;DHT22;35789;48.414;12.768;2022-12-18T05:55:00;-3.6;99.9
49901;DHT22;35789;48.414;12.768;2022-12-18T06:00:00;-3.8;99.9
49901;DHT22;35789;48.414;12.768;2022-12-18T06:05:00;-3.8;99.9
49901;DHT22;35789;48.414;12.768;2022-12-18T06:10:00;-3.8;99.9
49901;DHT22;35789;48.414;12.768;2022-12-18T06:15:00;-3.9;99.9
49901;DHT22;35789;48.414;12.768;2022-12-18T06:20:00;-3.7;99.9
49901;DHT22;35789;48.414;12.768;2022-12-18T06:25:00;-3.7;99.9
49901;DHT22;35789;48.414;12.768;2022-12-18T06:30:00;-3.6;99.9
49901;DHT22;35789;48.414;12.768;2022-12-18T06:35:00;-3.8;99.9
49901;DHT22;35789;48.414;12.768;2022-12-18T06:40:00;-3.8;99.9
49901;DHT22;35789;48.414;12.768;2022-12-18T06:45:00;-3.7;99.9
49901;DHT22;35789;48.414;12.768;2022-12-18T06:50:00;-3.8;99.9
49901;DHT22;35789;48.414;12.768;2022-12-18T06:55:00;-3.7;99.9
49901;DHT22;35789;48.414;12.768;2022-12-18T07:00:00;-3.8;99.9
49901;DHT22;35789;48.414;12.768;2022-12-18T07:05:00;-3.8;99.9
49901;DHT22;35789;48.414;12.768;2022-12-18T07:10:00;-3.7;99.9
49901;DHT22;35789;48.414;12.768;2022-12-18T07:15:00;-3.8;99.9
49901;DHT22;35789;48.414;12.768;2022-12-18T07:20:00;-3.9;99.9
49901;DHT22;35789;48.414;12.768;2022-12-18T07:25:00;-3.8;99.9
49901;DHT22;35789;48.414;12.768;2022-12-18T07:30:00;-3.5;99.9
49901;DHT22;35789;48.414;12.768;2022-12-18T07:35:00;-3.7;99.9
49901;DHT22;35789;48.414;12.768;2022-12-18T07:40:00;-3.7;99.9
49901;DHT22;35789;48.414;12.768;2022-12-18T07:45:00;-3.5;99.9
49901;DHT22;35789;48.414;12.768;2022-12-18T07:50:00;-3.5;99.9
49901;DHT22;35789;48.414;12.768;2022-12-18T07:55:00;-3.8;99.9
49901;DHT22;35789;48.414;12.768;2022-12-18T08:00:00;-3.8;99.9
49901;DHT22;35789;48.414;12.768;2022-12-18T08:05:00;-3.9;99.9
49901;DHT22;35789;48.414;12.768;2022-12-18T08:10:00;-3.7;99.9
49901;DHT22;35789;48.414;12.768;2022-12-18T08:15:00;-3.8;99.9
49901;DHT22;35789;48.414;12.768;2022-12-18T08:20:00;-3.7;99.9
49901;DHT22;35789;48.414;12.768;2022-12-18T08:25:00;-3.6;99.9
49901;DHT22;35789;48.414;12.768;2022-12-18T08:30:00;-3.8;99.9
49901;DHT22;35789;48.414;12.768;2022-12-18T08:35:00;-3.7;99.9
49901;DHT22;35789;48.414;12.768;2022-12-18T08:40:00;-3.6;99.9
49901;DHT22;35789;48.414;12.768;2022-12-18T08:45:00;-3.6;99.9
49901;DHT22;35789;48.414;12.768;2022-12-18T08:50:00;-3.4;99.9
49901;DHT22;35789;48.414;12.768;2022-12-18T08:55:00;-3.2;99.9
49901;DHT22;35789;48.414;12.768;2022-12-18T09:00:00;-3.4;99.9
49901;DHT22;35789;48.414;12.768;2022-12-18T09:05:00;-3.3;99.9
49901;DHT22;35789;48.414;12.768;2022-12-18T09:10:00;-3.4;99.9
49901;DHT22;35789;48.414;12.768;2022-12-18T09:15:00;-3.3;99.9
49901;DHT22;35789;48.414;12.768;2022-12-18T09:20:00;-3.3;99.9
49901;DHT22;35789;48.414;12.768;2022-12-18T09:25:00;-3.2;99.9
49901;DHT22;35789;48.414;12.768;2022-12-18T09:30:00;-3.2;99.9
49901;DHT22;35789;48.414;12.768;2022-12-18T09:35:00;-3.0;99.9
49901;DHT22;35789;48.414;12.768;2022-12-18T09:40:00;-3.0;99.9
49901;DHT22;35789;48.414;12.768;2022-12-18T09:45:00;-3.1;99.9
49901;DHT22;35789;48.414;12.768;2022-12-18T09:50:01;-3.3;99.9
49901;DHT22;35789;48.414;12.768;2022-12-18T09:55:01;-3.2;99.9
49901;DHT22;35789;48.414;12.768;2022-12-18T10:00:02;-3.0;99.9
49901;DHT22;35789;48.414;12.768;2022-12-18T10:05:04;-2.9;99.9
49901;DHT22;35789;48.414;12.768;2022-12-18T10:10:01;-2.8;99.9
49901;DHT22;35789;48.414;12.768;2022-12-18T10:15:01;-2.7;99.9
49901;DHT22;35789;48.414;12.768;2022-12-18T10:20:01;-2.8;99.9
49901;DHT22;35789;48.414;12.768;2022-12-18T10:25:01;-2.9;99.9
49901;DHT22;35789;48.414;12.768;2022-12-18T10:30:00;-2.9;99.9
49901;DHT22;35789;48.414;12.768;2022-12-18T10:35:00;-2.4;99.9
49901;DHT22;35789;48.414;12.768;2022-12-18T10:40:09;-2.5;99.9
49901;DHT22;35789;48.414;12.768;2022-12-18T10:45:00;-2.7;99.9
49901;DHT22;35789;48.414;12.768;2022-12-18T10:50:00;-2.7;99.9
49901;DHT22;35789;48.414;12.768;2022-12-18T10:55:01;-3.0;99.9
49901;DHT22;35789;48.414;12.768;2022-12-18T11:00:03;-3.1;99.9
49901;DHT22;35789;48.414;12.768;2022-12-18T11:05:00;-3.2;99.9
49901;DHT22;35789;48.414;12.768;2022-12-18T11:10:00;-3.3;99.9
49901;DHT22;35789;48.414;12.768;2022-12-18T11:15:00;-3.3;99.9
49901;DHT22;35789;48.414;12.768;2022-12-18T11:20:00;-3.3;99.9
49901;DHT22;35789;48.414;12.768;2022-12-18T11:25:00;-3.3;99.9
49901;DHT22;35789;48.414;12.768;2022-12-18T11:30:07;-3.4;99.9
49901;DHT22;35789;48.414;12.768;2022-12-18T11:35:02;-3.4;99.9
49901;DHT22;35789;48.414;12.768;2022-12-18T11:40:01;-3.4;99.9
49901;DHT22;35789;48.414;12.768;2022-12-18T11:45:00;-3.1;99.9
49901;DHT22;35789;48.414;12.768;2022-12-18T11:50:01;-3.1;99.9
49901;DHT22;35789;48.414;12.768;2022-12-18T11:55:01;-3.0;99.9
49901;DHT22;35789;48.414;12.768;2022-12-18T12:00:02;-2.5;99.9
49901;DHT22;35789;48.414;12.768;2022-12-18T12:05:04;-2.3;99.9
49901;DHT22;35789;48.414;12.768;2022-12-18T12:10:03;-2.4;99.9
49901;DHT22;35789;48.414;12.768;2022-12-18T12:15:02;-2.4;99.9
49901;DHT22;35789;48.414;12.768;2022-12-18T12:20:02;-2.6;99.9
49901;DHT22;35789;48.414;12.768;2022-12-18T12:25:04;-2.7;99.9
49901;DHT22;35789;48.414;12.768;2022-12-18T12:30:03;-2.8;99.9
49901;DHT22;35789;48.414;12.768;2022-12-18T12:35:04;-3.0;99.9
49901;DHT22;35789;48.414;12.768;2022-12-18T12:40:00;-3.0;99.9
49901;DHT22;35789;48.414;12.768;2022-12-18T12:45:00;-2.9;99.9
49901;DHT22;35789;48.414;12.768;2022-12-18T12:50:01;-3.0;99.9
49901;DHT22;35789;48.414;12.768;2022-12-18T12:55:00;-3.1;99.9
49901;DHT22;35789;48.414;12.768;2022-12-18T13:05:01;-3.1;99.9
49901;DHT22;35789;48.414;12.768;2022-12-18T13:20:04;-3.4;99.9
49901;DHT22;35789;48.414;12.768;2022-12-18T13:25:00;-3.4;99.9
49901;DHT22;35789;48.414;12.768;2022-12-18T13:30:00;-3.4;99.9
49901;DHT22;35789;48.414;12.768;2022-12-18T13:40:00;-3.5;99.9
49901;DHT22;35789;48.414;12.768;2022-12-18T13:45:00;-3.4;99.9
49901;DHT22;35789;48.414;12.768;2022-12-18T13:50:00;-3.5;99.9
49901;DHT22;35789;48.414;12.768;2022-12-18T13:55:01;-3.4;99.9
49901;DHT22;35789;48.414;12.768;2022-12-18T14:05:00;-3.4;99.9
49901;DHT22;35789;48.414;12.768;2022-12-18T14:10:00;-3.5;99.9
49901;DHT22;35789;48.414;12.768;2022-12-18T14:15:00;-3.5;99.9
49901;DHT22;35789;48.414;12.768;2022-12-18T14:20:00;-3.5;99.9
49901;DHT22;35789;48.414;12.768;2022-12-18T14:30:00;-3.5;99.9
49901;DHT22;35789;48.414;12.768;2022-12-18T14:35:12;-3.5;99.9
49901;DHT22;35789;48.414;12.768;2022-12-18T14:40:01;-3.6;99.9
49901;DHT22;35789;48.414;12.768;2022-12-18T14:50:00;-3.6;99.9
49901;DHT22;35789;48.414;12.768;2022-12-18T14:55:00;-3.7;99.9
49901;DHT22;35789;48.414;12.768;2022-12-18T15:00:03;-3.8;99.9
49901;DHT22;35789;48.414;12.768;2022-12-18T15:05:00;-3.9;99.9
49901;DHT22;35789;48.414;12.768;2022-12-18T15:10:02;-4.0;99.9
49901;DHT22;35789;48.414;12.768;2022-12-18T15:15:00;-4.0;99.9
49901;DHT22;35789;48.414;12.768;2022-12-18T15:20:01;-4.2;99.9
49901;DHT22;35789;48.414;12.768;2022-12-18T15:25:00;-4.2;99.9
49901;DHT22;35789;48.414;12.768;2022-12-18T15:30:02;-4.3;99.9
49901;DHT22;35789;48.414;12.768;2022-12-18T15:35:02;-4.3;99.9
49901;DHT22;35789;48.414;12.768;2022-12-18T15:40:00;-4.4;99.9
49901;DHT22;35789;48.414;12.768;2022-12-18T15:45:00;-4.4;99.9
49901;DHT22;35789;48.414;12.768;2022-12-18T15:50:00;-4.4;99.9
49901;DHT22;35789;48.414;12.768;2022-12-18T15:55:00;-4.5;99.9
49901;DHT22;35789;48.414;12.768;2022-12-18T16:00:00;-4.5;99.9
49901;DHT22;35789;48.414;12.768;2022-12-18T16:05:00;-4.5;99.9
49901;DHT22;35789;48.414;12.768;2022-12-18T16:10:00;-4.5;99.9
49901;DHT22;35789;48.414;12.768;2022-12-18T16:15:00;-4.5;99.9
49901;DHT22;35789;48.414;12.768;2022-12-18T16:20:00;-4.6;99.9
49901;DHT22;35789;48.414;12.768;2022-12-18T16:25:00;-4.6;99.9
49901;DHT22;35789;48.414;12.768;2022-12-18T16:30:00;-4.6;99.9
49901;DHT22;35789;48.414;12.768;2022-12-18T16:35:00;-4.7;99.9
49901;DHT22;35789;48.414;12.768;2022-12-18T16:40:00;-4.7;99.9
49901;DHT22;35789;48.414;12.768;2022-12-18T16:45:00;-4.8;99.9
49901;DHT22;35789;48.414;12.768;2022-12-18T16:50:00;-4.9;99.9
49901;DHT22;35789;48.414;12.768;2022-12-18T16:55:00;-5.0;99.9
49901;DHT22;35789;48.414;12.768;2022-12-18T17:00:00;-5.1;99.9
49901;DHT22;35789;48.414;12.768;2022-12-18T17:05:00;-5.0;99.9
49901;DHT22;35789;48.414;12.768;2022-12-18T17:10:00;-5.0;99.9
49901;DHT22;35789;48.414;12.768;2022-12-18T17:15:00;-5.1;99.9
49901;DHT22;35789;48.414;12.768;2022-12-18T17:20:00;-5.1;99.9
49901;DHT22;35789;48.414;12.768;2022-12-18T17:25:00;-5.1;99.9
49901;DHT22;35789;48.414;12.768;2022-12-18T17:30:00;-5.1;99.9
49901;DHT22;35789;48.414;12.768;2022-12-18T17:35:00;-5.3;99.9
49901;DHT22;35789;48.414;12.768;2022-12-18T17:40:00;-5.2;99.9
49901;DHT22;35789;48.414;12.768;2022-12-18T17:45:00;-5.3;99.9
49901;DHT22;35789;48.414;12.768;2022-12-18T17:50:00;-5.3;99.9
49901;DHT22;35789;48.414;12.768;2022-12-18T17:55:00;-5.3;99.9
49901;DHT22;35789;48.414;12.768;2022-12-18T18:00:00;-5.2;99.9
49901;DHT22;35789;48.414;12.768;2022-12-18T18:05:00;-5.2;99.9
49901;DHT22;35789;48.414;12.768;2022-12-18T18:10:00;-5.0;99.9
49901;DHT22;35789;48.414;12.768;2022-12-18T18:15:00;-5.0;99.9
49901;DHT22;35789;48.414;12.768;2022-12-18T18:20:00;-5.0;99.9
49901;DHT22;35789;48.414;12.768;2022-12-18T18:25:00;-4.9;99.9
49901;DHT22;35789;48.414;12.768;2022-12-18T18:30:00;-4.9;99.9
49901;DHT22;35789;48.414;12.768;2022-12-18T18:35:00;-4.8;99.9
49901;DHT22;35789;48.414;12.768;2022-12-18T18:40:00;-4.7;99.9
49901;DHT22;35789;48.414;12.768;2022-12-18T18:45:00;-4.6;99.9
49901;DHT22;35789;48.414;12.768;2022-12-18T18:50:00;-4.6;99.9
49901;DHT22;35789;48.414;12.768;2022-12-18T18:55:00;-4.6;99.9
49901;DHT22;35789;48.414;12.768;2022-12-18T19:00:00;-4.6;99.9
49901;DHT22;35789;48.414;12.768;2022-12-18T19:05:00;-4.6;99.9
49901;DHT22;35789;48.414;12.768;2022-12-18T19:10:00;-4.5;99.9
49901;DHT22;35789;48.414;12.768;2022-12-18T19:15:00;-4.6;99.9
49901;DHT22;35789;48.414;12.768;2022-12-18T19:20:00;-4.6;99.9
49901;DHT22;35789;48.414;12.768;2022-12-18T19:25:00;-4.6;99.9
49901;DHT22;35789;48.414;12.768;2022-12-18T19:30:00;-4.5;99.9
49901;DHT22;35789;48.414;12.768;2022-12-18T19:35:00;-4.6;99.9
49901;DHT22;35789;48.414;12.768;2022-12-18T19:40:00;-4.6;99.9
49901;DHT22;35789;48.414;12.768;2022-12-18T19:45:00;-4.5;99.9
49901;DHT22;35789;48.414;12.768;2022-12-18T19:50:00;-4.4;99.9
49901;DHT22;35789;48.414;12.768;2022-12-18T19:55:00;-4.3;99.9
49901;DHT22;35789;48.414;12.768;2022-12-18T20:00:00;-4.3;99.9
49901;DHT22;35789;48.414;12.768;2022-12-18T20:05:00;-4.3;99.9
49901;DHT22;35789;48.414;12.768;2022-12-18T20:10:00;-4.3;99.9
49901;DHT22;35789;48.414;12.768;2022-12-18T20:15:00;-4.2;99.9
49901;DHT22;35789;48.414;12.768;2022-12-18T20:20:00;-4.1;99.9
49901;DHT22;35789;48.414;12.768;2022-12-18T20:25:00;-4.1;99.9
49901;DHT22;35789;48.414;12.768;2022-12-18T20:30:00;-4.1;99.9
49901;DHT22;35789;48.414;12.768;2022-12-18T20:35:00;-4.2;99.9
49901;DHT22;35789;48.414;12.768;2022-12-18T20:40:00;-4.3;99.9
49901;DHT22;35789;48.414;12.768;2022-12-18T20:45:00;-4.5;99.9
49901;DHT22;35789;48.414;12.768;2022-12-18T20:50:00;-4.5;99.9
49901;DHT22;35789;48.414;12.768;2022-12-18T20:55:01;-4.5;99.9
49901;DHT22;35789;48.414;12.768;2022-12-18T21:00:00;-4.4;99.9
49901;DHT22;35789;48.414;12.768;2022-12-18T21:05:00;-4.4;99.9
49901;DHT22;35789;48.414;12.768;2022-12-18T21:10:02;-4.4;99.9
49901;DHT22;35789;48.414;12.768;2022-12-18T21:15:01;-4.4;99.9
49901;DHT22;35789;48.414;12.768;2022-12-18T21:20:00;-4.3;99.9
49901;DHT22;35789;48.414;12.768;2022-12-18T21:25:00;-4.3;99.9
49901;DHT22;35789;48.414;12.768;2022-12-18T21:30:00;-4.2;99.9
49901;DHT22;35789;48.414;12.768;2022-12-18T21:35:00;-4.3;99.9
49901;DHT22;35789;48.414;12.768;2022-12-18T21:40:00;-4.4;99.9
49901;DHT22;35789;48.414;12.768;2022-12-18T21:45:00;-4.4;99.9
49901;DHT22;35789;48.414;12.768;2022-12-18T21:50:00;-4.5;99.9
49901;DHT22;35789;48.414;12.768;2022-12-18T21:55:00;-4.5;99.9
49901;DHT22;35789;48.414;12.768;2022-12-18T22:00:00;-4.5;99.9
49901;DHT22;35789;48.414;12.768;2022-12-18T22:05:00;-4.4;99.9
49901;DHT22;35789;48.414;12.768;2022-12-18T22:10:00;-4.3;99.9
49901;DHT22;35789;48.414;12.768;2022-12-18T22:15:00;-4.4;99.9
49901;DHT22;35789;48.414;12.768;2022-12-18T22:20:00;-4.4;99.9
49901;DHT22;35789;48.414;12.768;2022-12-18T22:25:00;-4.4;99.9
49901;DHT22;35789;48.414;12.768;2022-12-18T22:30:00;-4.4;99.9
49901;DHT22;35789;48.414;12.768;2022-12-18T22:35:00;-4.4;99.9
49901;DHT22;35789;48.414;12.768;2022-12-18T22:40:00;-4.4;99.9
49901;DHT22;35789;48.414;12.768;2022-12-18T22:45:00;-4.4;99.9
49901;DHT22;35789;48.414;12.768;2022-12-18T22:50:00;-4.3;99.9
49901;DHT22;35789;48.414;12.768;2022-12-18T22:55:00;-4.4;99.9
49901;DHT22;35789;48.414;12.768;2022-12-18T23:00:00;-4.4;99.9
49901;DHT22;35789;48.414;12.768;2022-12-18T23:05:00;-4.5;99.9
49901;DHT22;35789;48.414;12.768;2022-12-18T23:10:00;-4.4;99.9
49901;DHT22;35789;48.414;12.768;2022-12-18T23:15:00;-4.4;99.9
49901;DHT22;35789;48.414;12.768;2022-12-18T23:20:00;-4.3;99.9
49901;DHT22;35789;48.414;12.768;2022-12-18T23:25:00;-4.3;99.9
49901;DHT22;35789;48.414;12.768;2022-12-18T23:30:00;-4.2;99.9
49901;DHT22;35789;48.414;12.768;2022-12-18T23:35:00;-4.1;99.9
49901;DHT22;35789;48.414;12.768;2022-12-18T23:40:00;-4.2;99.9
49901;DHT22;35789;48.414;12.768;2022-12-18T23:45:00;-4.2;99.9
49901;DHT22;35789;48.414;12.768;2022-12-18T23:50:00;-4.0;99.9
49901;DHT22;35789;48.414;12.768;2022-12-18T23:55:00;-4.2;99.9
